Rum Truffle — 9HB3719 — position and weather

sailwx.info

Track history (hours):
 
Tides and Currents Weather Stations Pressure Air Temp Water Temp Dewpoint Dewpoint Depression Visibility Wind Speed Wind Dir Waves Ship Positions

Rum Truffle

Last reported at 2017-Sep-25 15:43 UTC. Time now 2017-Oct-19 22:09 UTC.
Position N 37°56' E 023°39'.
Warning: this ship's position is 24 days out of date.

Length 17 m.

Type: Sailing vessel. MMSI: 248000358.

Date/timePositionNaut miles runAvg speedWind from/ knotsBaromVisibWave heightAir tempDewpointWater temp
2017-Sep-25 15:43N 37°56' E 023°39'0 0.0
2017-Sep-25 15:28N 37°56' E 023°39'0 0.0
2017-Sep-25 14:58N 37°56' E 023°39'1 1.7
2017-Sep-25 14:31N 37°55' E 023°39'4 7.4
2017-Sep-25 14:00N 37°52' E 023°41'4 7.6
2017-Sep-25 13:30N 37°48' E 023°43'4 7.6
2017-Sep-25 12:58N 37°45' E 023°46'47 2.0
2017-Sep-24 13:39N 37°33' E 024°44'2 8.6
2017-Sep-24 13:23N 37°33' E 024°47'  
Track history (hours):
 
Tides and Currents Weather Stations Pressure Air Temp Water Temp Dewpoint Dewpoint Depression Visibility Wind Speed Wind Dir Waves Ship Positions

Rum Truffle

Last reported at 2017-Sep-25 15:43 UTC. Time now 2017-Oct-19 22:09 UTC.
Position N 37°56' E 023°39'.
Warning: this ship's position is 24 days out of date.

Length 17 m.

Type: Sailing vessel. MMSI: 248000358.

Date/timePositionNaut miles runAvg speedWind from/ knotsBaromVisibWave heightAir tempDewpointWater temp
2017-Sep-25 15:43N 37°56' E 023°39'0 0.0
2017-Sep-25 15:28N 37°56' E 023°39'0 0.0
2017-Sep-25 14:58N 37°56' E 023°39'1 1.7
2017-Sep-25 14:31N 37°55' E 023°39'4 7.4
2017-Sep-25 14:00N 37°52' E 023°41'4 7.6
2017-Sep-25 13:30N 37°48' E 023°43'4 7.6
2017-Sep-25 12:58N 37°45' E 023°46'47 2.0
2017-Sep-24 13:39N 37°33' E 024°44'2 8.6
2017-Sep-24 13:23N 37°33' E 024°47'  

Dump ship's entire track history